Back to Top

Language: 

My Weather Underground Personal Weather Station Historical Data with Graphs...

Delerius Weather Station Historical Data
Daily Summary for November 4, 2017 Units:  Metric    English   Both
« Previous Day
Next Day »
Daily Weekly Monthly Yearly Custom
  High: Low: Average:
Temperature: 11.8 °C 5.1 °C 8.9 °C
Dew Point: 9.3 °C 2.8 °C 6.9 °C
Humidity: 96 % 68 % 87 %
Wind Speed: 20.9 km/h 0 km/h 7.9 km/h
Wind Gust: 37 km/h - -
Wind:- - West
Pressure: 1006 hPa 1001.6 hPa -
Precipitation: 1.78 mm    
Historical Graphs
 
 
Tabular Data for November 4, 2017
Time Temperature Dew Point Pressure Wind Wind Speed Wind Gust Humidity Rainfall Rate (Hourly) solar Conditions
00:04 10.6 °C 8.3 °C 1006 hPa South 8 km/h 14.5 km/h 86 % 0.25 mm 0 W/m2
00:09 10.5 °C 8.4 °C 1006 hPa SSW 6.4 km/h 12.9 km/h 87 % 0.25 mm 0 W/m2
00:14 10.4 °C 8.5 °C 1006 hPa South 9.7 km/h 12.9 km/h 88 % 0.25 mm 0 W/m2
00:19 10.4 °C 8.5 °C 1006 hPa SSE 6.4 km/h 11.3 km/h 88 % 0.25 mm 0 W/m2
00:24 10.4 °C 8.5 °C 1005.6 hPa SE 3.2 km/h 11.3 km/h 88 % 0.25 mm 0 W/m2
00:29 10.3 °C 8.6 °C 1005.6 hPa SSE 4.8 km/h 14.5 km/h 89 % 0.25 mm 0 W/m2
00:34 10.3 °C 8.6 °C 1005.3 hPa SSW 3.2 km/h 9.7 km/h 89 % 0.51 mm 0 W/m2
00:39 10.3 °C 8.6 °C 1005.3 hPa SSW 8 km/h 12.9 km/h 89 % 0.51 mm 0 W/m2
00:44 10.2 °C 8.6 °C 1005.3 hPa South 8 km/h 12.9 km/h 90 % 0.51 mm 0 W/m2
00:49 10.2 °C 8.6 °C 1005.3 hPa SSW 9.7 km/h 16.1 km/h 90 % 0.51 mm 0 W/m2
00:54 10.2 °C 8.6 °C 1005 hPa South 9.7 km/h 12.9 km/h 90 % 0.25 mm 0 W/m2
01:04 10.2 °C 8.8 °C 1005 hPa SW 8 km/h 14.5 km/h 91 % 0.25 mm 0 W/m2
01:09 10.1 °C 8.7 °C 1005 hPa SSW 8 km/h 12.9 km/h 91 % 0.25 mm 0 W/m2
01:14 10.1 °C 8.7 °C 1005 hPa SW 9.7 km/h 16.1 km/h 91 % 0.51 mm 0 W/m2
01:19 10.1 °C 8.7 °C 1004.6 hPa SSW 4.8 km/h 9.7 km/h 91 % 0.51 mm 0 W/m2
01:24 10 °C 8.6 °C 1004.6 hPa SSE 6.4 km/h 12.9 km/h 91 % 0.51 mm 0 W/m2
01:29 10 °C 8.6 °C 1004.6 hPa South 4.8 km/h 9.7 km/h 91 % 0.51 mm 0 W/m2
01:34 9.9 °C 8.7 °C 1004.6 hPa SSE 8 km/h 12.9 km/h 92 % 0.51 mm 0 W/m2
01:39 9.9 °C 8.7 °C 1004.3 hPa South 4.8 km/h 9.7 km/h 92 % 0.51 mm 0 W/m2
01:44 9.9 °C 8.7 °C 1004.3 hPa South 6.4 km/h 12.9 km/h 92 % 0.51 mm 0 W/m2
01:49 9.8 °C 8.6 °C 1004.3 hPa South 9.7 km/h 16.1 km/h 92 % 0.51 mm 0 W/m2
01:54 9.8 °C 8.6 °C 1003.9 hPa SSW 6.4 km/h 12.9 km/h 92 % 0.76 mm 0 W/m2
01:59 9.8 °C 8.6 °C 1003.9 hPa South 6.4 km/h 12.9 km/h 92 % 0.76 mm 0 W/m2
02:04 9.8 °C 8.6 °C 1003.9 hPa South 3.2 km/h 11.3 km/h 92 % 1.02 mm 0 W/m2
02:09 9.8 °C 8.6 °C 1003.9 hPa SSE 3.2 km/h 9.7 km/h 92 % 1.02 mm 0 W/m2
02:14 9.8 °C 8.7 °C 1003.6 hPa SSE 6.4 km/h 14.5 km/h 93 % 0.76 mm 0 W/m2
02:19 9.8 °C 8.7 °C 1003.6 hPa South 6.4 km/h 11.3 km/h 93 % 0.76 mm 0 W/m2
02:24 9.7 °C 8.6 °C 1003.6 hPa South 4.8 km/h 11.3 km/h 93 % 0.76 mm 0 W/m2
02:29 9.7 °C 8.6 °C 1003.3 hPa South 4.8 km/h 11.3 km/h 93 % 0.51 mm 0 W/m2
02:34 9.7 °C 8.6 °C 1003.3 hPa South 6.4 km/h 11.3 km/h 93 % 0.51 mm 0 W/m2
02:39 9.7 °C 8.6 °C 1003.3 hPa South 8 km/h 16.1 km/h 93 % 0.51 mm 0 W/m2
02:45 9.7 °C 8.6 °C 1002.9 hPa SSE 6.4 km/h 11.3 km/h 93 % 0.51 mm 0 W/m2
02:50 9.8 °C 8.9 °C 1002.9 hPa SSE 9.7 km/h 14.5 km/h 94 % 0.51 mm 0 W/m2
02:55 9.8 °C 8.9 °C 1002.9 hPa South 3.2 km/h 9.7 km/h 94 % 0.25 mm 0 W/m2
03:00 9.8 °C 8.9 °C 1002.9 hPa South 3.2 km/h 12.9 km/h 94 % 0.25 mm 0 W/m2
03:05 9.8 °C 8.9 °C 1002.9 hPa Calm     94 % 0 mm 0 W/m2
03:10 9.8 °C 8.9 °C 1002.6 hPa SSE 4.8 km/h 9.7 km/h 94 % 0 mm 0 W/m2
03:16 9.8 °C 8.9 °C 1002.6 hPa SE 4.8 km/h 8 km/h 94 % 0 mm 0 W/m2
03:20 9.8 °C 8.9 °C 1002.6 hPa SE 6.4 km/h 9.7 km/h 94 % 0 mm 0 W/m2
03:23 9.8 °C 8.9 °C 1002.3 hPa SE 6.4 km/h 9.7 km/h 94 % 0 mm 0 W/m2
03:27 9.8 °C 8.9 °C 1002.6 hPa SSE 4.8 km/h 9.7 km/h 94 % 0 mm 0 W/m2
03:29 9.8 °C 8.9 °C 1002.3 hPa SE 4.8 km/h 11.3 km/h 94 % 0 mm 0 W/m2
03:30 9.8 °C 8.9 °C 1002.3 hPa SE 6.4 km/h 11.3 km/h 94 % 0 mm 0 W/m2
03:35 9.8 °C 8.9 °C 1002.3 hPa SE 4.8 km/h 9.7 km/h 94 % 0 mm 0 W/m2
03:40 9.8 °C 8.9 °C 1002.3 hPa SSE 3.2 km/h 8 km/h 94 % 0 mm 0 W/m2
03:45 9.8 °C 8.9 °C 1002.3 hPa SSE 3.2 km/h 9.7 km/h 94 % 0 mm 0 W/m2
03:50 9.8 °C 8.9 °C 1002.3 hPa SSW 8 km/h 17.7 km/h 94 % 0 mm 0 W/m2
03:55 9.8 °C 8.9 °C 1001.9 hPa SSE 3.2 km/h 8 km/h 94 % 0 mm 0 W/m2
04:00 9.8 °C 8.9 °C 1001.9 hPa South 6.4 km/h 12.9 km/h 94 % 0 mm 0 W/m2
04:05 9.9 °C 9 °C 1001.9 hPa SSE 8 km/h 14.5 km/h 94 % 0 mm 0 W/m2
04:10 9.9 °C 9 °C 1001.9 hPa SSW 9.7 km/h 14.5 km/h 94 % 0 mm 0 W/m2
04:15 10.1 °C 9 °C 1001.9 hPa SW 4.8 km/h 9.7 km/h 93 % 0 mm 0 W/m2
04:20 10.1 °C 9 °C 1001.9 hPa SSW 4.8 km/h 16.1 km/h 93 % 0 mm 0 W/m2
04:25 10.1 °C 9 °C 1001.9 hPa WNW 1.6 km/h 4.8 km/h 93 % 0 mm 0 W/m2
04:30 10.1 °C 9 °C 1001.9 hPa SSE 4.8 km/h 9.7 km/h 93 % 0 mm 0 W/m2
04:35 10.1 °C 9 °C 1001.6 hPa SW 6.4 km/h 9.7 km/h 93 % 0 mm 0 W/m2
04:37 10.1 °C 9 °C 1001.6 hPa WSW 3.2 km/h 9.7 km/h 93 % 0 mm 0 W/m2
04:42 10.1 °C 9 °C 1001.9 hPa SSW 4.8 km/h 8 km/h 93 % 0 mm 0 W/m2
04:47 10.1 °C 9 °C 1001.6 hPa SSW 6.4 km/h 11.3 km/h 93 % 0 mm 0 W/m2
04:52 10 °C 8.9 °C 1001.6 hPa SSW 6.4 km/h 11.3 km/h 93 % 0 mm 0 W/m2
04:57 10 °C 8.9 °C 1001.6 hPa South 8 km/h 14.5 km/h 93 % 0 mm 0 W/m2
05:02 10 °C 8.9 °C 1001.6 hPa SSW 1.6 km/h 9.7 km/h 93 % 0 mm 0 W/m2
05:07 10 °C 9.1 °C 1001.6 hPa Calm     94 % 0.25 mm 0 W/m2
05:12 10 °C 9.1 °C 1001.6 hPa Calm   1.6 km/h 94 % 0.25 mm 0 W/m2
05:17 10 °C 9.1 °C 1001.6 hPa Calm     94 % 0.25 mm 0 W/m2
05:22 10 °C 9.1 °C 1001.6 hPa Calm     94 % 0.25 mm 0 W/m2
05:27 9.9 °C 9 °C 1001.6 hPa Calm     94 % 0.25 mm 0 W/m2
05:32 9.9 °C 9 °C 1001.6 hPa SSW 1.6 km/h 3.2 km/h 94 % 0.25 mm 0 W/m2
05:37 9.9 °C 9 °C 1001.6 hPa Calm     94 % 0.25 mm 0 W/m2
05:42 9.9 °C 9 °C 1001.6 hPa Calm     94 % 0.51 mm 0 W/m2
05:47 9.9 °C 9 °C 1001.6 hPa Calm     94 % 0.51 mm 0 W/m2
05:52 9.9 °C 9.1 °C 1001.6 hPa Calm     95 % 0.51 mm 0 W/m2
05:57 9.9 °C 9.1 °C 1001.6 hPa Calm     95 % 0.51 mm 0 W/m2
06:02 9.9 °C 9.1 °C 1001.6 hPa Calm     95 % 0.51 mm 0 W/m2
06:07 9.9 °C 9.1 °C 1001.6 hPa Calm     95 % 0.25 mm 0 W/m2
06:12 9.9 °C 9.1 °C 1001.6 hPa Calm     95 % 0.25 mm 0 W/m2
06:17 9.9 °C 9.1 °C 1001.6 hPa Calm     95 % 0.25 mm 0 W/m2
06:22 9.9 °C 9.1 °C 1001.6 hPa SW 1.6 km/h 4.8 km/h 95 % 0.25 mm 0 W/m2
06:27 9.9 °C 9.1 °C 1001.6 hPa Calm     95 % 0.25 mm 0 W/m2
06:32 9.9 °C 9.1 °C 1001.6 hPa WSW 1.6 km/h 6.4 km/h 95 % 0.25 mm 0 W/m2
06:37 9.9 °C 9.1 °C 1001.6 hPa Calm   3.2 km/h 95 % 0.25 mm 0 W/m2
06:42 9.9 °C 9.1 °C 1001.6 hPa Calm   3.2 km/h 95 % 0 mm 0 W/m2
06:47 9.9 °C 9.1 °C 1001.6 hPa Calm   1.6 km/h 95 % 0 mm 0 W/m2
06:52 9.9 °C 9.1 °C 1001.6 hPa WNW 1.6 km/h 6.4 km/h 95 % 0 mm 0 W/m2
06:57 10 °C 9.2 °C 1001.6 hPa Calm   1.6 km/h 95 % 0 mm 0 W/m2
07:02 10 °C 9.2 °C 1001.6 hPa NW 3.2 km/h 8 km/h 95 % 0 mm 0 W/m2
07:07 10 °C 9.2 °C 1001.6 hPa WNW 3.2 km/h 9.7 km/h 95 % 0 mm 0 W/m2
07:12 10 °C 9.2 °C 1001.6 hPa NW 3.2 km/h 8 km/h 95 % 0 mm 0 W/m2
07:17 10 °C 9.2 °C 1001.6 hPa Calm   3.2 km/h 95 % 0 mm 0 W/m2
07:22 10 °C 9.2 °C 1001.6 hPa Calm   3.2 km/h 95 % 0 mm 0 W/m2
07:27 10 °C 9.2 °C 1001.6 hPa Calm   3.2 km/h 95 % 0 mm 0 W/m2
07:32 9.9 °C 9.1 °C 1001.6 hPa Calm   1.6 km/h 95 % 0 mm 0 W/m2
07:37 9.9 °C 9.1 °C 1001.6 hPa Calm     95 % 0 mm 0 W/m2
07:42 9.9 °C 9.1 °C 1001.9 hPa NW 1.6 km/h 3.2 km/h 95 % 0 mm 0 W/m2
07:47 9.9 °C 9.1 °C 1001.9 hPa Calm   1.6 km/h 95 % 0 mm 5 W/m2
07:52 9.9 °C 9.3 °C 1001.9 hPa Calm     96 % 0 mm 7 W/m2
07:57 9.9 °C 9.3 °C 1001.6 hPa NW 1.6 km/h 6.4 km/h 96 % 0 mm 11 W/m2
08:02 9.9 °C 9.3 °C 1001.6 hPa Calm   1.6 km/h 96 % 0 mm 12 W/m2
08:07 9.8 °C 9.2 °C 1001.6 hPa Calm     96 % 0 mm 16 W/m2
08:13 9.8 °C 9.2 °C 1001.6 hPa Calm   1.6 km/h 96 % 0 mm 18 W/m2
08:18 9.8 °C 9.2 °C 1001.9 hPa Calm   3.2 km/h 96 % 0 mm 23 W/m2
08:23 9.8 °C 9.1 °C 1001.9 hPa Calm     95 % 0 mm 23 W/m2
08:28 9.8 °C 9.2 °C 1001.9 hPa Calm     96 % 0 mm 19 W/m2
08:33 9.8 °C 9.2 °C 1001.6 hPa Calm     96 % 0 mm 18 W/m2
08:38 9.8 °C 9.2 °C 1001.9 hPa Calm     96 % 0 mm 21 W/m2
08:43 9.9 °C 9.3 °C 1001.9 hPa Calm     96 % 0 mm 25 W/m2
08:48 9.8 °C 9.2 °C 1001.9 hPa Calm     96 % 0 mm 26 W/m2
08:53 9.8 °C 9.1 °C 1001.6 hPa NW 1.6 km/h 6.4 km/h 95 % 0.25 mm 33 W/m2
08:58 9.8 °C 9.2 °C 1001.6 hPa Calm   1.6 km/h 96 % 0.25 mm 37 W/m2
09:03 9.8 °C 9.2 °C 1001.6 hPa Calm   1.6 km/h 96 % 0.25 mm 37 W/m2
09:08 9.8 °C 9.2 °C 1001.6 hPa Calm   3.2 km/h 96 % 0.25 mm 26 W/m2
09:13 9.8 °C 9.2 °C 1001.6 hPa WNW 6.4 km/h 9.7 km/h 96 % 0.25 mm 26 W/m2
09:18 9.8 °C 9.1 °C 1001.6 hPa WNW 6.4 km/h 8 km/h 95 % 0.25 mm 32 W/m2
09:23 9.7 °C 8.9 °C 1001.6 hPa WNW 4.8 km/h 9.7 km/h 95 % 0.25 mm 40 W/m2
09:28 9.7 °C 8.9 °C 1001.6 hPa WNW 8 km/h 11.3 km/h 95 % 0.25 mm 44 W/m2
09:33 9.6 °C 8.8 °C 1001.6 hPa WNW 8 km/h 11.3 km/h 95 % 0.25 mm 37 W/m2
09:38 9.6 °C 8.8 °C 1001.6 hPa WNW 11.3 km/h 16.1 km/h 95 % 0.25 mm 30 W/m2
09:43 9.6 °C 8.8 °C 1001.6 hPa NW 8 km/h 12.9 km/h 95 % 0.25 mm 28 W/m2
09:48 9.6 °C 8.8 °C 1001.6 hPa NW 8 km/h 11.3 km/h 95 % 0 mm 33 W/m2
09:53 9.6 °C 8.8 °C 1001.6 hPa NW 6.4 km/h 9.7 km/h 95 % 0 mm 35 W/m2
09:58 9.6 °C 8.8 °C 1001.6 hPa WNW 9.7 km/h 16.1 km/h 95 % 0 mm 51 W/m2
10:03 9.6 °C 8.8 °C 1001.6 hPa WNW 8 km/h 12.9 km/h 95 % 0 mm 62 W/m2
10:08 9.7 °C 8.9 °C 1001.6 hPa WNW 12.9 km/h 19.3 km/h 95 % 0 mm 60 W/m2
10:13 9.7 °C 8.8 °C 1001.6 hPa WNW 12.9 km/h 22.5 km/h 94 % 0 mm 74 W/m2
10:18 9.7 °C 8.8 °C 1001.6 hPa WNW 11.3 km/h 17.7 km/h 94 % 0 mm 102 W/m2
10:23 9.8 °C 8.9 °C 1001.6 hPa WNW 8 km/h 14.5 km/h 94 % 0 mm 109 W/m2
10:28 9.8 °C 8.9 °C 1001.6 hPa WNW 9.7 km/h 16.1 km/h 94 % 0 mm 111 W/m2
10:33 9.9 °C 8.8 °C 1001.6 hPa NW 11.3 km/h 22.5 km/h 93 % 0 mm 114 W/m2
10:38 10 °C 8.9 °C 1001.6 hPa WNW 11.3 km/h 17.7 km/h 93 % 0 mm 120 W/m2
10:43 10 °C 8.9 °C 1001.6 hPa NW 11.3 km/h 20.9 km/h 93 % 0 mm 130 W/m2
10:48 10.1 °C 8.8 °C 1001.6 hPa WNW 11.3 km/h 17.7 km/h 92 % 0 mm 128 W/m2
10:53 10.1 °C 8.8 °C 1001.6 hPa WNW 11.3 km/h 19.3 km/h 92 % 0 mm 130 W/m2
10:58 10.1 °C 8.8 °C 1001.6 hPa WNW 11.3 km/h 16.1 km/h 92 % 0 mm 134 W/m2
11:03 10.2 °C 8.8 °C 1001.6 hPa WNW 14.5 km/h 22.5 km/h 91 % 0 mm 141 W/m2
11:08 10.2 °C 8.8 °C 1001.6 hPa WNW 12.9 km/h 17.7 km/h 91 % 0 mm 151 W/m2
11:13 10.2 °C 8.8 °C 1001.6 hPa WNW 11.3 km/h 19.3 km/h 91 % 0 mm 162 W/m2
11:18 10.3 °C 8.9 °C 1001.6 hPa WNW 16.1 km/h 24.1 km/h 91 % 0 mm 148 W/m2
11:23 10.3 °C 8.7 °C 1001.6 hPa WNW 16.1 km/h 29 km/h 90 % 0 mm 120 W/m2
11:28 10.4 °C 8.8 °C 1001.6 hPa WNW 14.5 km/h 24.1 km/h 90 % 0 mm 171 W/m2
11:33 10.4 °C 8.8 °C 1001.6 hPa WNW 12.9 km/h 20.9 km/h 90 % 0 mm 144 W/m2
11:38 10.4 °C 8.7 °C 1001.6 hPa WNW 16.1 km/h 22.5 km/h 89 % 0 mm 114 W/m2
11:43 10.4 °C 8.5 °C 1001.6 hPa WNW 12.9 km/h 33.8 km/h 88 % 0 mm 118 W/m2
11:48 10.3 °C 8.4 °C 1001.6 hPa WNW 14.5 km/h 24.1 km/h 88 % 0 mm 120 W/m2
11:53 10.4 °C 8.5 °C 1001.6 hPa WNW 16.1 km/h 29 km/h 88 % 0 mm 265 W/m2
11:58 10.5 °C 8.6 °C 1001.6 hPa WNW 17.7 km/h 33.8 km/h 88 % 0 mm 301 W/m2
12:03 10.7 °C 8.4 °C 1001.6 hPa WNW 17.7 km/h 25.7 km/h 86 % 0 mm 216 W/m2
12:08 10.8 °C 8.6 °C 1001.6 hPa WNW 12.9 km/h 19.3 km/h 86 % 0 mm 229 W/m2
12:13 10.9 °C 8.5 °C 1001.6 hPa WNW 16.1 km/h 25.7 km/h 85 % 0 mm 209 W/m2
12:18 10.9 °C 8.5 °C 1001.6 hPa NW 12.9 km/h 24.1 km/h 85 % 0 mm 221 W/m2
12:23 10.9 °C 8.3 °C 1001.6 hPa NW 16.1 km/h 30.6 km/h 84 % 0 mm 253 W/m2
12:28 10.9 °C 8.3 °C 1001.6 hPa WNW 16.1 km/h 29 km/h 84 % 0 mm 185 W/m2
12:33 10.8 °C 8 °C 1001.6 hPa WNW 17.7 km/h 30.6 km/h 83 % 0 mm 195 W/m2
12:38 10.8 °C 8.2 °C 1001.6 hPa WNW 8 km/h 14.5 km/h 84 % 0 mm 190 W/m2
12:43 10.9 °C 8.1 °C 1001.6 hPa WNW 17.7 km/h 29 km/h 83 % 0 mm 200 W/m2
12:48 10.9 °C 7.9 °C 1001.9 hPa WNW 19.3 km/h 30.6 km/h 82 % 0 mm 221 W/m2
12:53 10.9 °C 7.9 °C 1001.9 hPa WNW 17.7 km/h 30.6 km/h 82 % 0 mm 223 W/m2
12:58 11 °C 7.9 °C 1001.9 hPa WNW 17.7 km/h 29 km/h 81 % 0 mm 244 W/m2
13:03 11.1 °C 7.8 °C 1001.9 hPa NW 16.1 km/h 24.1 km/h 80 % 0 mm 174 W/m2
13:08 11.1 °C 7.8 °C 1001.9 hPa NW 16.1 km/h 24.1 km/h 80 % 0 mm 148 W/m2
13:13 11 °C 7.5 °C 1001.9 hPa NW 14.5 km/h 24.1 km/h 79 % 0 mm 120 W/m2
13:18 10.9 °C 7.2 °C 1001.6 hPa NW 14.5 km/h 20.9 km/h 78 % 0 mm 100 W/m2
13:23 10.7 °C 6.8 °C 1001.6 hPa NW 16.1 km/h 25.7 km/h 77 % 0 mm 118 W/m2
13:28 10.6 °C 6.9 °C 1001.6 hPa NW 16.1 km/h 25.7 km/h 78 % 0 mm 267 W/m2
13:33 10.7 °C 7.4 °C 1001.6 hPa WNW 12.9 km/h 20.9 km/h 80 % 0 mm 121 W/m2
13:38 10.7 °C 7.4 °C 1001.9 hPa WNW 16.1 km/h 29 km/h 80 % 0 mm 118 W/m2
13:43 10.8 °C 7.3 °C 1001.9 hPa WNW 17.7 km/h 25.7 km/h 79 % 0 mm 364 W/m2
13:48 10.9 °C 7.4 °C 1001.9 hPa WNW 16.1 km/h 25.7 km/h 79 % 0 mm 360 W/m2
13:53 11.2 °C 7.7 °C 1001.9 hPa WNW 14.5 km/h 20.9 km/h 79 % 0 mm 339 W/m2
13:58 11.5 °C 7.8 °C 1001.9 hPa WNW 14.5 km/h 25.7 km/h 78 % 0 mm 343 W/m2
14:03 11.7 °C 7.8 °C 1001.9 hPa WNW 14.5 km/h 24.1 km/h 77 % 0 mm 279 W/m2
14:08 11.8 °C 7.1 °C 1001.9 hPa NW 16.1 km/h 29 km/h 73 % 0 mm 325 W/m2
14:14 11.8 °C 6.5 °C 1002.3 hPa NW 17.7 km/h 30.6 km/h 70 % 0 mm 267 W/m2
14:19 11.7 °C 6 °C 1002.3 hPa WNW 20.9 km/h 37 km/h 68 % 0 mm 265 W/m2
14:24 11.6 °C 6.1 °C 1002.3 hPa NW 16.1 km/h 29 km/h 69 % 0 mm 236 W/m2
14:29 11.3 °C 5.8 °C 1002.3 hPa WNW 17.7 km/h 29 km/h 69 % 0 mm 213 W/m2
14:34 11.2 °C 5.9 °C 1002.6 hPa WNW 14.5 km/h 25.7 km/h 70 % 0 mm 204 W/m2
14:39 11.2 °C 5.9 °C 1002.3 hPa WNW 14.5 km/h 22.5 km/h 70 % 0 mm 193 W/m2
14:44 11.2 °C 5.7 °C 1002.6 hPa WNW 16.1 km/h 22.5 km/h 69 % 0 mm 185 W/m2
14:49 11.2 °C 5.7 °C 1002.3 hPa West 17.7 km/h 29 km/h 69 % 0 mm 174 W/m2
14:54 11 °C 5.7 °C 1002.6 hPa WNW 19.3 km/h 30.6 km/h 70 % 0 mm 162 W/m2
14:59 10.8 °C 5.7 °C 1002.6 hPa WNW 19.3 km/h 29 km/h 71 % 0 mm 155 W/m2
15:04 10.6 °C 5.9 °C 1002.6 hPa WNW 14.5 km/h 24.1 km/h 73 % 0 mm 144 W/m2
15:09 10.5 °C 6.1 °C 1002.6 hPa WNW 14.5 km/h 22.5 km/h 74 % 0 mm 83 W/m2
15:14 10.4 °C 6.2 °C 1002.6 hPa WNW 12.9 km/h 22.5 km/h 75 % 0 mm 40 W/m2
15:19 10.3 °C 6.1 °C 1002.6 hPa West 12.9 km/h 19.3 km/h 75 % 0 mm 40 W/m2
15:24 10.1 °C 5.9 °C 1002.6 hPa West 12.9 km/h 17.7 km/h 75 % 0 mm 26 W/m2
15:29 9.9 °C 5.7 °C 1002.9 hPa WNW 16.1 km/h 22.5 km/h 75 % 0 mm 28 W/m2
15:34 9.8 °C 5.6 °C 1002.9 hPa WNW 9.7 km/h 14.5 km/h 75 % 0 mm 26 W/m2
15:39 9.7 °C 5.5 °C 1002.9 hPa West 11.3 km/h 19.3 km/h 75 % 0 mm 35 W/m2
15:44 9.6 °C 5.4 °C 1003.3 hPa West 12.9 km/h 22.5 km/h 75 % 0 mm 21 W/m2
15:49 9.5 °C 5.3 °C 1002.9 hPa WNW 14.5 km/h 20.9 km/h 75 % 0 mm 16 W/m2
15:54 9.3 °C 5.3 °C 1002.9 hPa WNW 12.9 km/h 19.3 km/h 76 % 0 mm 14 W/m2
15:59 9.2 °C 5.2 °C 1002.9 hPa WNW 8 km/h 16.1 km/h 76 % 0 mm 14 W/m2
16:04 9 °C 5 °C 1003.3 hPa WNW 9.7 km/h 17.7 km/h 76 % 0 mm 11 W/m2
16:09 8.8 °C 5 °C 1002.9 hPa WNW 9.7 km/h 17.7 km/h 77 % 0 mm 9 W/m2
16:14 8.7 °C 4.9 °C 1002.9 hPa WNW 11.3 km/h 19.3 km/h 77 % 0 mm 7 W/m2
16:19 8.6 °C 5 °C 1002.9 hPa WNW 11.3 km/h 16.1 km/h 78 % 0 mm 7 W/m2
16:24 8.4 °C 4.8 °C 1003.3 hPa WNW 4.8 km/h 11.3 km/h 78 % 0 mm 5 W/m2
16:29 8.3 °C 4.7 °C 1003.3 hPa WNW 6.4 km/h 12.9 km/h 78 % 0 mm 0 W/m2
16:34 8.2 °C 4.8 °C 1003.3 hPa WNW 9.7 km/h 17.7 km/h 79 % 0 mm 0 W/m2
16:39 8 °C 4.6 °C 1003.3 hPa WNW 11.3 km/h 16.1 km/h 79 % 0 mm 0 W/m2
16:44 7.9 °C 4.5 °C 1003.3 hPa WNW 6.4 km/h 11.3 km/h 79 % 0 mm 0 W/m2
16:49 7.8 °C 4.4 °C 1003.6 hPa WNW 3.2 km/h 8 km/h 79 % 0 mm 0 W/m2
16:54 7.7 °C 4.3 °C 1003.6 hPa West 1.6 km/h 8 km/h 79 % 0 mm 0 W/m2
17:00 7.6 °C 4.2 °C 1003.6 hPa WNW 3.2 km/h 8 km/h 79 % 0 mm 0 W/m2
17:05 7.5 °C 4.3 °C 1003.6 hPa West 3.2 km/h 9.7 km/h 80 % 0 mm 0 W/m2
17:10 7.4 °C 4.2 °C 1003.6 hPa WNW 8 km/h 14.5 km/h 80 % 0 mm 0 W/m2
17:15 7.3 °C 4.1 °C 1003.6 hPa Calm     80 % 0 mm 0 W/m2
17:20 7.2 °C 4 °C 1003.6 hPa Calm   3.2 km/h 80 % 0 mm 0 W/m2
17:25 7.1 °C 4.1 °C 1003.6 hPa NW 1.6 km/h 3.2 km/h 81 % 0 mm 0 W/m2
17:30 7 °C 3.9 °C 1003.6 hPa WNW 6.4 km/h 11.3 km/h 81 % 0 mm 0 W/m2
17:35 6.9 °C 3.9 °C 1003.6 hPa WNW 6.4 km/h 12.9 km/h 81 % 0 mm 0 W/m2
17:40 7 °C 3.9 °C 1003.6 hPa WNW 6.4 km/h 14.5 km/h 81 % 0 mm 0 W/m2
17:45 7.1 °C 4.1 °C 1003.6 hPa WNW 9.7 km/h 16.1 km/h 81 % 0 mm 0 W/m2
17:50 7.1 °C 4.1 °C 1003.6 hPa West 4.8 km/h 14.5 km/h 81 % 0 mm 0 W/m2
17:55 7 °C 3.9 °C 1003.6 hPa WSW 1.6 km/h 6.4 km/h 81 % 0 mm 0 W/m2
18:00 6.9 °C 3.9 °C 1003.6 hPa West 3.2 km/h 11.3 km/h 81 % 0 mm 0 W/m2
18:05 7 °C 3.9 °C 1003.6 hPa West 9.7 km/h 19.3 km/h 81 % 0 mm 0 W/m2
18:10 7.1 °C 4.1 °C 1003.9 hPa West 11.3 km/h 20.9 km/h 81 % 0 mm 0 W/m2
18:15 7.1 °C 3.9 °C 1003.9 hPa West 11.3 km/h 14.5 km/h 80 % 0 mm 0 W/m2
18:20 7.1 °C 3.7 °C 1003.9 hPa West 12.9 km/h 19.3 km/h 79 % 0 mm 0 W/m2
18:25 7.2 °C 4 °C 1003.9 hPa WNW 12.9 km/h 17.7 km/h 80 % 0 mm 0 W/m2
18:30 7.1 °C 3.9 °C 1003.9 hPa WNW 9.7 km/h 14.5 km/h 80 % 0 mm 0 W/m2
18:35 7.1 °C 4.1 °C 1003.9 hPa WNW 6.4 km/h 9.7 km/h 81 % 0 mm 0 W/m2
18:40 7.1 °C 4.1 °C 1003.9 hPa WNW 4.8 km/h 9.7 km/h 81 % 0 mm 0 W/m2
18:45 7 °C 4.1 °C 1003.9 hPa WNW 8 km/h 17.7 km/h 82 % 0 mm 0 W/m2
18:50 7 °C 4.1 °C 1003.9 hPa WNW 8 km/h 12.9 km/h 82 % 0 mm 0 W/m2
18:55 7 °C 4.1 °C 1003.9 hPa WNW 1.6 km/h 6.4 km/h 82 % 0 mm 0 W/m2
19:00 6.9 °C 4.2 °C 1004.3 hPa Calm   1.6 km/h 83 % 0 mm 0 W/m2
19:05 6.8 °C 4.1 °C 1003.9 hPa West 3.2 km/h 9.7 km/h 83 % 0 mm 0 W/m2
19:10 6.8 °C 4.3 °C 1004.3 hPa WNW 9.7 km/h 16.1 km/h 84 % 0 mm 0 W/m2
19:15 6.8 °C 4.4 °C 1003.9 hPa West 8 km/h 12.9 km/h 85 % 0 mm 0 W/m2
19:20 6.7 °C 4.3 °C 1003.9 hPa West 4.8 km/h 12.9 km/h 85 % 0 mm 0 W/m2
19:25 6.7 °C 4.3 °C 1003.9 hPa West 6.4 km/h 9.7 km/h 85 % 0 mm 0 W/m2
19:30 6.7 °C 4.3 °C 1004.3 hPa WNW 4.8 km/h 9.7 km/h 85 % 0 mm 0 W/m2
19:35 6.7 °C 4.5 °C 1004.3 hPa West 12.9 km/h 24.1 km/h 86 % 0 mm 0 W/m2
19:40 6.8 °C 4.6 °C 1004.6 hPa West 19.3 km/h 33.8 km/h 86 % 0 mm 0 W/m2
19:45 6.8 °C 4.4 °C 1004.6 hPa WNW 16.1 km/h 25.7 km/h 85 % 0 mm 0 W/m2
19:50 6.8 °C 4.4 °C 1004.6 hPa WNW 12.9 km/h 22.5 km/h 85 % 0 mm 0 W/m2
19:55 6.8 °C 4.4 °C 1004.6 hPa WNW 11.3 km/h 17.7 km/h 85 % 0 mm 0 W/m2
20:00 6.7 °C 4.3 °C 1004.6 hPa WNW 9.7 km/h 19.3 km/h 85 % 0 mm 0 W/m2
20:05 6.7 °C 4.3 °C 1004.6 hPa WNW 9.7 km/h 12.9 km/h 85 % 0 mm 0 W/m2
20:10 6.6 °C 4.3 °C 1004.6 hPa WNW 8 km/h 14.5 km/h 85 % 0 mm 0 W/m2
20:15 6.6 °C 4.4 °C 1004.6 hPa WNW 6.4 km/h 12.9 km/h 86 % 0 mm 0 W/m2
20:20 6.5 °C 4.3 °C 1004.6 hPa Calm   3.2 km/h 86 % 0 mm 0 W/m2
20:25 6.4 °C 4.2 °C 1004.6 hPa West 4.8 km/h 8 km/h 86 % 0 mm 0 W/m2
20:30 6.3 °C 4.1 °C 1004.6 hPa West 1.6 km/h 6.4 km/h 86 % 0 mm 0 W/m2
20:35 6.2 °C 4.1 °C 1004.6 hPa WSW 3.2 km/h 9.7 km/h 86 % 0 mm 0 W/m2
20:40 6.2 °C 4.2 °C 1005 hPa West 6.4 km/h 11.3 km/h 87 % 0 mm 0 W/m2
20:45 6.1 °C 4.1 °C 1004.6 hPa West 6.4 km/h 12.9 km/h 87 % 0 mm 0 W/m2
20:50 6.1 °C 4.1 °C 1004.6 hPa West 6.4 km/h 11.3 km/h 87 % 0 mm 0 W/m2
20:55 6 °C 4 °C 1004.6 hPa West 8 km/h 12.9 km/h 87 % 0 mm 0 W/m2
21:00 5.9 °C 3.9 °C 1004.6 hPa West 8 km/h 12.9 km/h 87 % 0 mm 0 W/m2
21:06 5.8 °C 3.8 °C 1004.6 hPa West 12.9 km/h 20.9 km/h 87 % 0 mm 0 W/m2
21:10 5.8 °C 3.8 °C 1004.6 hPa West 6.4 km/h 16.1 km/h 87 % 0 mm 0 W/m2
21:16 5.7 °C 3.7 °C 1004.6 hPa West 4.8 km/h 12.9 km/h 87 % 0 mm 0 W/m2
21:21 5.7 °C 3.7 °C 1004.6 hPa West 8 km/h 16.1 km/h 87 % 0 mm 0 W/m2
21:26 5.7 °C 3.7 °C 1004.6 hPa West 3.2 km/h 11.3 km/h 87 % 0 mm 0 W/m2
21:31 5.6 °C 3.6 °C 1005 hPa West 6.4 km/h 11.3 km/h 87 % 0 mm 0 W/m2
21:36 5.6 °C 3.6 °C 1004.6 hPa West 3.2 km/h 9.7 km/h 87 % 0 mm 0 W/m2
21:41 5.6 °C 3.6 °C 1004.6 hPa WNW 1.6 km/h 8 km/h 87 % 0 mm 0 W/m2
21:46 5.5 °C 3.5 °C 1004.6 hPa Calm   3.2 km/h 87 % 0 mm 0 W/m2
21:51 5.5 °C 3.5 °C 1004.6 hPa West 6.4 km/h 16.1 km/h 87 % 0 mm 0 W/m2
21:56 5.5 °C 3.5 °C 1004.6 hPa West 8 km/h 12.9 km/h 87 % 0 mm 0 W/m2
22:01 5.5 °C 3.5 °C 1004.6 hPa West 8 km/h 19.3 km/h 87 % 0 mm 0 W/m2
22:06 5.6 °C 3.6 °C 1004.6 hPa West 9.7 km/h 17.7 km/h 87 % 0 mm 0 W/m2
22:11 5.6 °C 3.6 °C 1004.6 hPa West 9.7 km/h 14.5 km/h 87 % 0 mm 0 W/m2
22:16 5.7 °C 3.7 °C 1005 hPa West 6.4 km/h 11.3 km/h 87 % 0 mm 0 W/m2
22:21 5.7 °C 3.7 °C 1004.6 hPa West 6.4 km/h 11.3 km/h 87 % 0 mm 0 W/m2
22:26 5.8 °C 3.8 °C 1005 hPa West 3.2 km/h 8 km/h 87 % 0 mm 0 W/m2
22:28 5.8 °C 3.8 °C 1005 hPa West 3.2 km/h 8 km/h 87 % 0 mm 0 W/m2
22:33 5.8 °C 3.8 °C 1005 hPa West 4.8 km/h 12.9 km/h 87 % 0 mm 0 W/m2
22:38 5.8 °C 3.8 °C 1005.3 hPa West 8 km/h 20.9 km/h 87 % 0 mm 0 W/m2
22:43 5.9 °C 3.9 °C 1005.3 hPa West 12.9 km/h 24.1 km/h 87 % 0 mm 0 W/m2
22:48 5.9 °C 3.7 °C 1005.3 hPa West 12.9 km/h 22.5 km/h 86 % 0 mm 0 W/m2
22:53 5.9 °C 3.7 °C 1005.3 hPa West 12.9 km/h 19.3 km/h 86 % 0 mm 0 W/m2
22:58 5.8 °C 3.4 °C 1005.3 hPa West 14.5 km/h 24.1 km/h 85 % 0 mm 0 W/m2
23:03 5.8 °C 3.3 °C 1005.6 hPa WNW 14.5 km/h 20.9 km/h 84 % 0 mm 0 W/m2
23:08 5.8 °C 3.1 °C 1005.6 hPa WNW 14.5 km/h 22.5 km/h 83 % 0 mm 0 W/m2
23:13 5.9 °C 3.2 °C 1005.6 hPa WNW 14.5 km/h 20.9 km/h 83 % 0 mm 0 W/m2
23:18 5.8 °C 3.1 °C 1005.6 hPa West 12.9 km/h 25.7 km/h 83 % 0 mm 0 W/m2
23:23 5.8 °C 3.1 °C 1005.6 hPa West 14.5 km/h 24.1 km/h 83 % 0 mm 0 W/m2
23:28 5.7 °C 3.1 °C 1005.6 hPa West 14.5 km/h 22.5 km/h 83 % 0 mm 0 W/m2
23:33 5.6 °C 3.1 °C 1005.6 hPa West 11.3 km/h 16.1 km/h 84 % 0 mm 0 W/m2
23:38 5.5 °C 3 °C 1005.6 hPa West 17.7 km/h 29 km/h 84 % 0 mm 0 W/m2
23:43 5.4 °C 2.9 °C 1005.3 hPa West 14.5 km/h 22.5 km/h 84 % 0 mm 0 W/m2
23:48 5.3 °C 2.8 °C 1005.3 hPa WNW 14.5 km/h 20.9 km/h 84 % 0 mm 0 W/m2
23:53 5.2 °C 2.9 °C 1005.3 hPa WNW 9.7 km/h 14.5 km/h 85 % 0 mm 0 W/m2
23:58 5.1 °C 2.8 °C 1005.3 hPa WNW 9.7 km/h 17.7 km/h 85 % 0 mm 0 W/m2
Delerius-Weather
Compliments of Weather Underground - 2.25 mb

Data updates at regular intervals.